Time;durP1;ratioP1;P1;durP2;ratioP2;P2;SDS_P1;SDS_P2;PMS_P1;PMS_P2;Temp;Humidity;BMP_temperature;BMP_pressure;BME280_temperature;BME280_humidity;BME280_pressure;Samples;Min_cycle;Max_cycle;Signal;HPM_P1;HPM_P2
2021/09/15 00:00:33;;;;;;;7.30;6.60;;;19.70;99.90;;;;;;5038648;28;20511;-76
2021/09/15 00:02:58;;;;;;;9.13;7.00;;;19.50;99.90;;;;;;5042261;28;20029;-76
2021/09/15 00:05:24;;;;;;;8.23;6.78;;;19.30;99.90;;;;;;5043843;28;20025;-76
2021/09/15 00:07:49;;;;;;;7.47;6.57;;;19.40;99.90;;;;;;5050812;28;20505;-76
2021/09/15 00:10:15;;;;;;;6.97;6.32;;;19.50;99.90;;;;;;5052842;28;20033;-76
2021/09/15 00:12:41;;;;;;;7.32;6.60;;;19.60;99.90;;;;;;5041242;28;20399;-76
2021/09/15 00:15:07;;;;;;;7.35;5.85;;;19.60;99.90;;;;;;5036626;28;20036;-77
2021/09/15 00:17:33;;;;;;;7.40;6.20;;;19.70;99.90;;;;;;5042301;28;20105;-77
2021/09/15 00:19:58;;;;;;;6.80;6.15;;;19.70;99.90;;;;;;5049497;28;20120;-77
2021/09/15 00:22:24;;;;;;;7.78;6.38;;;19.70;99.90;;;;;;5062068;28;20071;-77
2021/09/15 00:24:50;;;;;;;9.20;6.28;;;19.80;99.90;;;;;;5038041;28;20029;-77
2021/09/15 00:27:15;;;;;;;7.28;6.57;;;19.80;99.90;;;;;;5039629;28;20028;-76
2021/09/15 00:29:41;;;;;;;7.07;6.13;;;19.60;99.90;;;;;;5033847;28;20026;-77
2021/09/15 00:32:06;;;;;;;6.20;5.63;;;19.60;99.90;;;;;;5035937;28;20026;-77
2021/09/15 00:34:32;;;;;;;6.70;6.00;;;19.60;99.90;;;;;;5065791;28;20063;-77
2021/09/15 00:36:58;;;;;;;6.57;5.97;;;19.70;99.90;;;;;;5044491;28;20068;-76
2021/09/15 00:39:24;;;;;;;7.88;6.00;;;19.70;99.90;;;;;;5049270;28;20032;-74
2021/09/15 00:41:50;;;;;;;6.85;6.10;;;19.70;99.90;;;;;;5045646;28;20029;-78
2021/09/15 00:44:16;;;;;;;7.30;6.57;;;19.70;99.90;;;;;;5042020;28;20146;-77
2021/09/15 00:46:41;;;;;;;6.35;5.75;;;19.70;99.90;;;;;;5044431;28;20033;-77
2021/09/15 00:49:08;;;;;;;6.47;5.60;;;19.70;99.90;;;;;;5047505;28;20029;-77
2021/09/15 00:51:36;;;;;;;7.65;5.80;;;19.70;99.90;;;;;;5045067;28;20028;-77
2021/09/15 00:54:04;;;;;;;6.90;6.25;;;19.70;99.90;;;;;;5042007;28;20021;-77
2021/09/15 00:56:31;;;;;;;6.40;5.90;;;19.70;99.90;;;;;;5044912;28;20037;-76
2021/09/15 00:58:57;;;;;;;6.75;6.05;;;19.80;99.90;;;;;;5048895;28;20029;-76
2021/09/15 01:01:22;;;;;;;7.25;6.00;;;19.80;99.90;;;;;;5044133;28;20023;-77
2021/09/15 01:03:48;;;;;;;6.93;6.22;;;19.80;99.90;;;;;;5038342;28;20053;-77
2021/09/15 01:06:14;;;;;;;8.82;5.75;;;19.70;99.90;;;;;;5045316;28;20486;-76
2021/09/15 01:08:40;;;;;;;6.70;6.03;;;19.70;99.90;;;;;;5040170;28;20597;-77
2021/09/15 01:11:06;;;;;;;6.70;6.10;;;19.60;99.90;;;;;;5055071;28;20083;-76
2021/09/15 01:13:32;;;;;;;6.38;5.65;;;19.60;99.90;;;;;;5041527;28;20079;-76
2021/09/15 01:15:58;;;;;;;8.48;6.38;;;19.60;99.90;;;;;;5044466;28;20041;-77
2021/09/15 01:18:24;;;;;;;7.20;5.72;;;19.50;99.90;;;;;;5065185;28;20021;-78
2021/09/15 01:20:50;;;;;;;6.65;6.05;;;19.50;99.90;;;;;;5055015;28;20036;-78
2021/09/15 01:23:15;;;;;;;10.27;6.07;;;19.50;99.90;;;;;;5041328;28;20025;-78
2021/09/15 01:25:41;;;;;;;6.97;5.90;;;19.50;99.90;;;;;;5044493;28;20511;-78
2021/09/15 01:28:07;;;;;;;5.90;5.30;;;19.60;99.90;;;;;;5037629;28;20024;-78
2021/09/15 01:30:33;;;;;;;7.57;5.82;;;19.60;99.90;;;;;;5053771;28;20056;-78
2021/09/15 01:32:59;;;;;;;6.82;6.05;;;19.60;99.90;;;;;;5041654;28;20032;-77
2021/09/15 01:35:24;;;;;;;6.85;5.88;;;19.60;99.90;;;;;;5043442;28;20029;-77
2021/09/15 01:37:50;;;;;;;6.75;6.15;;;19.60;99.90;;;;;;5047892;28;20041;-76
2021/09/15 01:40:16;;;;;;;6.40;5.80;;;19.60;99.90;;;;;;5043988;28;20425;-75
2021/09/15 01:42:42;;;;;;;6.97;5.90;;;19.60;99.90;;;;;;5040822;28;20029;-76
2021/09/15 01:45:10;;;;;;;6.93;6.10;;;19.50;99.90;;;;;;5043924;28;20064;-76
2021/09/15 01:47:36;;;;;;;6.97;6.10;;;19.60;99.90;;;;;;5036795;28;20020;-76
2021/09/15 01:50:02;;;;;;;6.35;5.70;;;19.60;99.90;;;;;;5043930;28;20113;-76
2021/09/15 01:52:28;;;;;;;6.72;6.03;;;19.50;99.90;;;;;;5034293;28;20022;-75
2021/09/15 01:54:53;;;;;;;6.40;5.80;;;19.60;99.90;;;;;;5043455;28;20083;-76
2021/09/15 01:57:19;;;;;;;6.78;6.07;;;19.60;99.90;;;;;;5040437;28;20035;-76
2021/09/15 01:59:44;;;;;;;6.93;6.25;;;19.60;99.90;;;;;;5043942;28;20030;-78
2021/09/15 02:02:13;;;;;;;7.57;6.60;;;19.60;99.90;;;;;;5037563;28;20029;-76
2021/09/15 02:04:39;;;;;;;6.68;6.07;;;19.70;99.90;;;;;;5042146;28;20018;-77
2021/09/15 02:07:06;;;;;;;6.95;5.68;;;19.70;99.90;;;;;;5045962;28;20036;-77
2021/09/15 02:09:31;;;;;;;7.53;5.90;;;19.90;99.90;;;;;;5044541;28;20074;-77
2021/09/15 02:11:57;;;;;;;7.07;5.82;;;19.70;99.90;;;;;;5039342;28;20021;-76
2021/09/15 02:14:23;;;;;;;7.10;6.38;;;19.70;99.90;;;;;;5053694;28;20029;-76
2021/09/15 02:16:50;;;;;;;6.28;5.57;;;19.80;99.90;;;;;;5040179;28;20025;-76
2021/09/15 02:19:16;;;;;;;6.47;5.78;;;19.80;99.90;;;;;;5041999;28;20112;-74
2021/09/15 02:21:41;;;;;;;6.38;5.78;;;19.80;99.90;;;;;;5051184;28;20494;-77
2021/09/15 02:24:07;;;;;;;7.07;6.20;;;19.90;99.90;;;;;;5043215;28;20025;-77
2021/09/15 02:26:33;;;;;;;6.97;6.28;;;20.00;99.90;;;;;;5033609;28;20041;-77
2021/09/15 02:28:59;;;;;;;7.35;6.05;;;19.90;99.90;;;;;;5046056;28;20588;-77
2021/09/15 02:31:25;;;;;;;6.80;6.10;;;19.90;99.90;;;;;;5039267;28;20696;-78
2021/09/15 02:33:50;;;;;;;6.40;5.80;;;19.90;99.90;;;;;;5041730;28;20167;-78
2021/09/15 02:36:16;;;;;;;6.32;5.72;;;19.90;99.90;;;;;;5046784;28;20065;-76
2021/09/15 02:38:42;;;;;;;6.90;6.10;;;19.90;99.90;;;;;;5043786;28;20099;-77
2021/09/15 02:41:07;;;;;;;7.25;6.05;;;19.90;99.90;;;;;;5038580;28;20029;-76
2021/09/15 02:43:33;;;;;;;6.82;5.95;;;19.80;99.90;;;;;;5042535;28;20487;-75
2021/09/15 02:45:59;;;;;;;7.60;6.20;;;19.80;99.90;;;;;;5046309;28;20079;-77
2021/09/15 02:48:25;;;;;;;6.95;6.25;;;19.80;99.90;;;;;;5043278;28;20025;-76
2021/09/15 02:50:50;;;;;;;7.07;6.32;;;19.80;99.90;;;;;;5039794;28;20135;-75
2021/09/15 02:53:17;;;;;;;8.30;6.13;;;19.80;99.90;;;;;;5043428;28;20025;-75
2021/09/15 02:55:43;;;;;;;6.70;6.10;;;19.80;99.90;;;;;;5046136;28;20021;-75
2021/09/15 02:58:08;;;;;;;7.15;6.53;;;19.80;99.90;;;;;;5045481;28;20017;-74
2021/09/15 03:00:34;;;;;;;7.65;6.22;;;19.70;99.90;;;;;;5035109;28;20052;-75
2021/09/15 03:03:01;;;;;;;7.63;6.78;;;19.80;99.90;;;;;;5044821;28;20104;-74
2021/09/15 03:05:27;;;;;;;9.40;6.57;;;19.60;99.90;;;;;;5044308;28;20025;-76
2021/09/15 03:07:52;;;;;;;7.43;6.63;;;19.60;99.90;;;;;;5061422;28;20029;-75
2021/09/15 03:10:18;;;;;;;7.47;6.55;;;19.60;99.90;;;;;;5034901;28;20040;-76
2021/09/15 03:12:43;;;;;;;6.85;6.07;;;19.60;99.90;;;;;;5031481;28;20083;-75
2021/09/15 03:15:09;;;;;;;7.40;6.55;;;19.70;99.90;;;;;;5050327;28;20060;-76
2021/09/15 03:17:35;;;;;;;7.63;6.40;;;19.70;99.90;;;;;;5041751;28;20027;-76
2021/09/15 03:20:00;;;;;;;7.22;6.55;;;19.70;99.90;;;;;;5046050;28;20029;-76
2021/09/15 03:22:26;;;;;;;7.70;6.30;;;19.70;99.90;;;;;;5043751;28;20028;-76
2021/09/15 03:24:52;;;;;;;7.05;6.35;;;19.70;99.90;;;;;;5038859;28;20028;-75
2021/09/15 03:27:17;;;;;;;9.32;6.88;;;19.80;99.90;;;;;;5041377;28;20105;-75
2021/09/15 03:29:43;;;;;;;7.53;6.40;;;19.70;99.90;;;;;;5049826;28;20482;-75
2021/09/15 03:32:08;;;;;;;7.70;6.50;;;19.80;99.90;;;;;;5040485;28;20535;-75
2021/09/15 03:34:34;;;;;;;9.10;7.03;;;19.80;99.90;;;;;;5044411;28;20032;-76
2021/09/15 03:36:59;;;;;;;8.00;7.20;;;19.80;99.90;;;;;;5042600;28;20033;-76
2021/09/15 03:39:25;;;;;;;7.90;7.10;;;19.70;99.90;;;;;;5038797;28;20549;-76
2021/09/15 03:41:50;;;;;;;9.85;7.63;;;19.70;99.90;;;;;;5042768;28;20036;-75
2021/09/15 03:44:16;;;;;;;8.23;6.95;;;19.70;99.90;;;;;;5032146;28;20100;-75
2021/09/15 03:46:41;;;;;;;7.32;6.63;;;19.70;99.90;;;;;;5042049;28;20028;-76
2021/09/15 03:49:07;;;;;;;7.78;5.95;;;19.70;99.90;;;;;;5038762;28;20531;-74
2021/09/15 03:51:32;;;;;;;10.25;7.35;;;19.70;99.90;;;;;;5042179;28;20030;-74
2021/09/15 03:53:59;;;;;;;9.65;7.10;;;19.70;99.90;;;;;;5045498;28;20036;-75
2021/09/15 03:56:25;;;;;;;7.60;6.82;;;19.60;99.90;;;;;;5040340;28;20360;-75
2021/09/15 03:58:51;;;;;;;7.28;6.57;;;19.50;99.90;;;;;;5035479;28;20802;-75
2021/09/15 04:01:16;;;;;;;7.13;6.53;;;19.50;99.90;;;;;;5042167;28;20096;-75
2021/09/15 04:03:42;;;;;;;8.38;7.38;;;19.60;99.90;;;;;;5036407;28;20021;-74
2021/09/15 04:06:07;;;;;;;8.05;7.25;;;19.60;99.90;;;;;;5042095;28;20031;-73
2021/09/15 04:08:33;;;;;;;8.13;7.38;;;19.50;99.90;;;;;;5045105;28;20037;-75
2021/09/15 04:10:59;;;;;;;10.30;7.68;;;19.50;99.90;;;;;;5040040;28;20052;-75
2021/09/15 04:13:25;;;;;;;9.98;7.40;;;19.40;99.90;;;;;;5038307;28;20029;-75
2021/09/15 04:15:51;;;;;;;9.23;7.57;;;19.20;99.90;;;;;;5040766;28;20168;-75
2021/09/15 04:18:16;;;;;;;9.60;7.72;;;19.10;99.90;;;;;;5033024;28;20484;-74
2021/09/15 04:20:43;;;;;;;9.73;7.43;;;19.00;99.90;;;;;;5042670;28;20037;-74
2021/09/15 04:23:15;;;;;;;12.65;7.95;;;18.90;99.90;;;;;;5060968;28;20017;-74
2021/09/15 04:33:37;;;;;;;8.95;7.22;;;18.90;99.90;;;;;;5060447;28;20025;-74
2021/09/15 04:36:02;;;;;;;11.02;7.68;;;18.90;99.90;;;;;;5064715;28;20027;-74
2021/09/15 04:38:28;;;;;;;9.90;7.47;;;18.80;99.90;;;;;;5042207;28;20543;-75
2021/09/15 04:40:54;;;;;;;15.70;7.65;;;18.80;99.90;;;;;;5043661;28;20032;-74
2021/09/15 04:43:19;;;;;;;12.05;7.93;;;18.80;99.90;;;;;;5041088;28;20096;-74
2021/09/15 04:45:45;;;;;;;10.32;7.50;;;18.80;99.90;;;;;;5036780;28;20506;-75
2021/09/15 04:48:10;;;;;;;8.95;7.28;;;18.80;99.90;;;;;;5041340;28;20076;-77
2021/09/15 04:50:36;;;;;;;9.88;7.18;;;18.80;99.90;;;;;;5043603;28;20022;-74
2021/09/15 04:53:01;;;;;;;10.23;7.30;;;18.60;99.90;;;;;;5040174;28;20052;-75
2021/09/15 04:55:29;;;;;;;12.25;7.55;;;18.70;99.90;;;;;;5036298;28;20099;-74
2021/09/15 04:57:55;;;;;;;12.10;7.60;;;18.70;99.90;;;;;;5042488;28;20422;-75
2021/09/15 05:00:20;;;;;;;14.82;7.40;;;18.80;99.90;;;;;;5045372;28;20025;-74
2021/09/15 05:02:46;;;;;;;14.60;7.45;;;18.80;99.90;;;;;;5041629;28;20025;-74
2021/09/15 05:05:11;;;;;;;12.85;7.72;;;18.80;99.90;;;;;;5044319;28;20041;-75
2021/09/15 05:07:37;;;;;;;13.77;7.38;;;18.70;99.90;;;;;;5039884;28;20021;-75
2021/09/15 05:10:03;;;;;;;11.20;7.15;;;18.60;99.90;;;;;;5038651;28;20476;-74
2021/09/15 05:12:28;;;;;;;14.07;7.93;;;18.70;99.90;;;;;;5041737;28;20033;-76
2021/09/15 05:14:56;;;;;;;16.02;7.82;;;18.50;99.90;;;;;;5045040;28;20786;-76
2021/09/15 05:17:21;;;;;;;15.65;8.10;;;18.40;99.90;;;;;;5043241;28;20044;-76
2021/09/15 05:19:47;;;;;;;18.13;8.27;;;18.40;99.90;;;;;;5041356;28;20364;-76
2021/09/15 05:22:12;;;;;;;19.52;7.90;;;18.50;99.90;;;;;;5053565;28;20112;-76
2021/09/15 05:24:38;;;;;;;14.80;7.47;;;18.50;99.90;;;;;;5039857;28;20022;-76
2021/09/15 05:27:04;;;;;;;16.65;7.93;;;18.60;99.90;;;;;;5045523;28;20037;-76
2021/09/15 05:29:29;;;;;;;13.48;8.20;;;18.60;99.90;;;;;;5051529;28;20024;-75
2021/09/15 05:31:55;;;;;;;18.40;7.50;;;18.50;99.90;;;;;;5065559;28;20406;-75
2021/09/15 05:34:20;;;;;;;15.23;8.35;;;18.70;99.90;;;;;;5039995;28;20033;-75
2021/09/15 05:36:46;;;;;;;15.68;7.93;;;18.60;99.90;;;;;;5063226;28;20075;-75
2021/09/15 05:39:11;;;;;;;15.13;8.10;;;18.60;99.90;;;;;;5056765;28;20021;-75
2021/09/15 05:41:37;;;;;;;11.85;8.48;;;18.60;99.90;;;;;;5042070;28;20028;-75
2021/09/15 05:44:02;;;;;;;11.95;7.72;;;18.70;99.90;;;;;;5054204;28;20104;-71
2021/09/15 05:46:28;;;;;;;10.18;8.15;;;18.60;99.90;;;;;;5045241;28;20100;-75
2021/09/15 05:48:53;;;;;;;8.68;7.78;;;18.60;99.90;;;;;;5051995;28;20025;-75
2021/09/15 05:51:19;;;;;;;12.10;9.02;;;18.50;99.90;;;;;;5055230;28;20032;-75
2021/09/15 05:53:44;;;;;;;10.18;8.77;;;18.50;99.90;;;;;;5046274;28;20502;-75
2021/09/15 05:56:10;;;;;;;10.77;8.52;;;18.30;99.90;;;;;;5042727;28;20483;-75
2021/09/15 05:58:35;;;;;;;10.65;8.90;;;18.40;99.90;;;;;;5037512;28;20071;-76
2021/09/15 06:01:01;;;;;;;9.80;8.20;;;18.50;99.90;;;;;;5042639;28;20487;-76
2021/09/15 06:03:27;;;;;;;15.32;9.43;;;18.50;99.90;;;;;;5037866;28;20026;-77
2021/09/15 06:05:52;;;;;;;11.40;9.23;;;18.50;99.90;;;;;;5041844;28;20451;-72
2021/09/15 06:08:18;;;;;;;9.93;8.32;;;18.50;99.90;;;;;;5051174;28;20029;-72
2021/09/15 06:10:43;;;;;;;12.02;8.20;;;18.40;99.90;;;;;;5049647;28;20035;-71
2021/09/15 06:13:09;;;;;;;12.13;8.35;;;18.50;99.90;;;;;;5045670;28;20049;-71
2021/09/15 06:15:35;;;;;;;12.68;8.50;;;18.70;99.90;;;;;;5053482;28;20063;-71
2021/09/15 06:18:00;;;;;;;11.02;8.95;;;18.80;99.90;;;;;;5039321;28;20443;-77
2021/09/15 06:20:26;;;;;;;12.13;8.45;;;18.70;99.90;;;;;;5046081;28;20622;-75
2021/09/15 06:22:51;;;;;;;11.07;8.15;;;18.70;99.90;;;;;;5060260;28;20112;-74
2021/09/15 06:25:17;;;;;;;13.88;8.43;;;18.80;99.90;;;;;;5033457;28;20033;-76
2021/09/15 06:27:42;;;;;;;12.73;8.23;;;18.90;99.90;;;;;;5046795;28;20028;-75
2021/09/15 06:30:09;;;;;;;12.25;7.63;;;18.80;99.90;;;;;;5040795;28;20020;-75
2021/09/15 06:32:36;;;;;;;13.93;8.02;;;18.80;99.90;;;;;;5038770;28;20025;-75
2021/09/15 06:35:01;;;;;;;17.67;8.52;;;18.80;99.90;;;;;;5045621;28;20112;-75
2021/09/15 06:37:27;;;;;;;11.45;7.97;;;18.90;99.90;;;;;;5046770;28;20151;-76
2021/09/15 06:39:53;;;;;;;17.15;8.98;;;18.90;99.90;;;;;;5048240;28;20028;-76
2021/09/15 06:42:18;;;;;;;13.00;9.13;;;18.90;99.90;;;;;;5045669;28;20025;-76
2021/09/15 06:44:44;;;;;;;13.55;8.50;;;18.60;99.90;;;;;;5046353;28;20096;-76
2021/09/15 06:47:09;;;;;;;11.20;8.73;;;18.40;99.90;;;;;;5046486;28;20033;-76
2021/09/15 06:49:35;;;;;;;10.63;8.93;;;18.10;99.90;;;;;;5040584;28;20052;-76
2021/09/15 06:52:01;;;;;;;12.60;8.35;;;18.00;99.90;;;;;;5038422;28;20029;-75
2021/09/15 06:54:26;;;;;;;9.45;8.50;;;18.10;99.90;;;;;;5051995;28;20383;-76
2021/09/15 06:56:52;;;;;;;9.48;8.52;;;18.30;99.90;;;;;;5039440;28;20034;-75
2021/09/15 06:59:17;;;;;;;9.70;8.70;;;18.40;99.90;;;;;;5045224;28;20024;-75
2021/09/15 07:01:43;;;;;;;12.98;9.75;;;18.50;99.90;;;;;;5046332;28;20021;-75
2021/09/15 07:04:08;;;;;;;14.18;9.00;;;18.50;99.90;;;;;;5038331;28;20064;-75
2021/09/15 07:06:34;;;;;;;9.75;8.65;;;18.50;99.90;;;;;;5038241;28;20124;-75
2021/09/15 07:09:00;;;;;;;10.85;9.18;;;18.50;99.90;;;;;;5046212;28;20096;-75
2021/09/15 07:11:25;;;;;;;11.15;9.43;;;18.50;99.90;;;;;;5044560;28;20391;-75
2021/09/15 07:13:51;;;;;;;10.40;9.35;;;18.60;99.90;;;;;;5039460;28;20021;-75
2021/09/15 07:16:17;;;;;;;12.05;9.10;;;18.90;99.90;;;;;;5038361;28;20388;-76
2021/09/15 07:18:44;;;;;;;12.07;9.25;;;19.00;99.90;;;;;;5046127;28;20030;-76
2021/09/15 07:21:09;;;;;;;11.68;9.13;;;19.20;99.90;;;;;;5044298;28;20548;-75
2021/09/15 07:23:35;;;;;;;10.65;9.52;;;19.30;99.90;;;;;;5039034;28;20017;-76
2021/09/15 07:26:00;;;;;;;12.77;9.63;;;19.50;99.90;;;;;;5039292;28;20090;-76
2021/09/15 07:28:27;;;;;;;9.50;8.60;;;19.60;99.90;;;;;;5039302;28;20036;-75
2021/09/15 07:30:52;;;;;;;9.88;8.98;;;19.60;99.90;;;;;;5039011;28;20030;-76
2021/09/15 07:33:18;;;;;;;16.77;8.65;;;19.70;99.90;;;;;;5039053;28;20025;-76
2021/09/15 07:35:43;;;;;;;9.48;8.50;;;19.80;99.90;;;;;;5038796;28;20034;-76
2021/09/15 07:38:09;;;;;;;11.35;9.20;;;19.90;99.90;;;;;;5038104;28;20041;-76
2021/09/15 07:40:35;;;;;;;11.70;8.95;;;19.90;99.90;;;;;;5039215;28;20032;-76
2021/09/15 07:43:01;;;;;;;9.38;8.48;;;20.00;99.90;;;;;;5044398;28;20057;-76
2021/09/15 07:45:28;;;;;;;11.00;9.35;;;20.00;99.90;;;;;;5045105;28;20029;-75
2021/09/15 07:47:53;;;;;;;13.32;8.77;;;19.90;99.90;;;;;;5038526;28;20498;-76
2021/09/15 07:50:19;;;;;;;10.13;8.70;;;19.90;99.90;;;;;;5052167;28;20025;-75
2021/09/15 07:52:44;;;;;;;9.05;8.15;;;19.90;99.90;;;;;;5037556;28;20036;-76
2021/09/15 07:55:10;;;;;;;10.63;8.57;;;19.90;99.90;;;;;;5038853;28;20045;-76
2021/09/15 07:57:39;;;;;;;10.75;8.73;;;19.60;99.90;;;;;;5038377;28;20021;-76
2021/09/15 08:00:05;;;;;;;13.70;9.77;;;19.40;99.90;;;;;;5051906;28;20021;-75
2021/09/15 08:02:31;;;;;;;11.77;9.73;;;19.50;99.90;;;;;;5038678;28;20029;-75
2021/09/15 08:04:56;;;;;;;11.02;9.52;;;19.50;99.90;;;;;;5038473;28;20155;-77
2021/09/15 08:07:22;;;;;;;10.60;9.32;;;19.60;99.90;;;;;;5043949;28;20025;-75
2021/09/15 08:09:47;;;;;;;11.90;9.90;;;19.60;99.90;;;;;;5045007;28;20029;-75
2021/09/15 08:12:13;;;;;;;12.00;9.85;;;19.60;99.90;;;;;;5037037;28;20029;-75
2021/09/15 08:14:38;;;;;;;11.68;10.40;;;19.50;99.90;;;;;;5038595;28;20029;-77
2021/09/15 08:17:04;;;;;;;11.23;10.07;;;19.60;99.90;;;;;;5045011;28;20476;-75
2021/09/15 08:19:29;;;;;;;11.65;10.45;;;19.80;99.90;;;;;;5044491;28;20021;-75
2021/09/15 08:21:55;;;;;;;13.18;10.25;;;19.90;99.90;;;;;;5037325;28;20071;-77
2021/09/15 08:24:21;;;;;;;11.65;10.45;;;19.90;99.90;;;;;;5038676;28;20405;-77
2021/09/15 08:26:46;;;;;;;13.02;10.55;;;20.20;99.90;;;;;;5044557;28;20476;-75
2021/09/15 08:29:12;;;;;;;15.05;10.68;;;20.50;99.90;;;;;;5044696;28;20032;-75
2021/09/15 08:31:37;;;;;;;13.70;10.52;;;20.40;99.90;;;;;;5037004;28;20502;-75
2021/09/15 08:34:03;;;;;;;12.02;10.63;;;20.20;99.90;;;;;;5038735;28;20057;-75
2021/09/15 08:36:28;;;;;;;11.93;10.73;;;20.20;99.90;;;;;;5044836;28;20034;-75
2021/09/15 08:38:54;;;;;;;12.07;10.77;;;20.40;99.90;;;;;;5043225;28;20108;-78
2021/09/15 08:41:19;;;;;;;13.27;10.93;;;20.40;99.90;;;;;;5044111;28;20036;-75
2021/09/15 08:43:45;;;;;;;13.45;11.55;;;20.50;99.90;;;;;;5059601;28;20360;-76
2021/09/15 08:46:13;;;;;;;13.75;11.43;;;20.50;99.90;;;;;;5038000;28;20031;-75
2021/09/15 08:48:40;;;;;;;13.65;11.25;;;20.30;99.90;;;;;;5038782;28;20033;-75
2021/09/15 08:51:14;;;;;;;16.73;12.55;;;20.30;99.90;;;;;;5048996;28;20021;-77
2021/09/15 08:53:41;;;;;;;15.32;11.90;;;20.10;99.90;;;;;;5035942;28;20030;-75
2021/09/15 08:56:07;;;;;;;12.95;11.63;;;20.00;99.90;;;;;;5047741;28;20464;-78
2021/09/15 08:58:33;;;;;;;15.60;12.32;;;20.00;99.90;;;;;;5048870;28;20429;-75
2021/09/15 09:01:20;;;;;;;13.63;12.32;;;19.80;99.90;;;;;;5042585;28;20025;-75
2021/09/15 09:03:51;;;;;;;15.30;12.25;;;19.80;99.90;;;;;;5040765;28;20017;-75
2021/09/15 09:06:20;;;;;;;15.57;12.98;;;19.60;99.90;;;;;;5055074;28;20099;-75
2021/09/15 09:08:46;;;;;;;15.48;13.27;;;19.60;99.90;;;;;;5040312;28;20505;-75
2021/09/15 09:11:14;;;;;;;15.57;13.82;;;19.70;99.90;;;;;;5043695;28;20034;-72
2021/09/15 09:13:53;;;;;;;15.13;13.35;;;19.70;99.90;;;;;;5035164;28;20026;-77
2021/09/15 09:16:37;;;;;;;15.18;13.57;;;19.80;99.90;;;;;;5035062;28;20029;-75
2021/09/15 09:19:05;;;;;;;16.20;14.43;;;19.90;99.90;;;;;;5043963;28;20025;-75
2021/09/15 09:21:33;;;;;;;16.67;14.30;;;19.90;99.90;;;;;;5041337;28;20068;-75
2021/09/15 09:24:05;;;;;;;17.75;14.65;;;19.90;99.90;;;;;;5045530;28;20591;-75
2021/09/15 09:26:49;;;;;;;16.42;14.77;;;20.00;99.90;;;;;;5045297;28;20043;-75
2021/09/15 09:29:27;;;;;;;16.45;14.15;;;20.10;99.90;;;;;;5048058;28;20442;-75
2021/09/15 09:31:59;;;;;;;18.48;15.30;;;20.30;99.90;;;;;;5043358;28;20128;-74
2021/09/15 09:34:26;;;;;;;17.50;15.70;;;20.40;99.90;;;;;;5039823;28;20120;-76
2021/09/15 09:37:09;;;;;;;16.92;14.85;;;20.60;99.90;;;;;;5044676;28;20033;-75
2021/09/15 09:39:43;;;;;;;19.27;14.35;;;20.50;99.90;;;;;;5048423;28;20022;-74
2021/09/15 09:42:24;;;;;;;16.38;14.68;;;20.60;99.90;;;;;;5046610;28;20429;-75
2021/09/15 09:44:50;;;;;;;16.42;14.70;;;20.60;99.90;;;;;;5041381;28;20025;-75
2021/09/15 09:47:18;;;;;;;15.68;14.18;;;20.60;99.90;;;;;;5039481;28;20044;-75
2021/09/15 09:50:10;;;;;;;16.92;15.05;;;20.60;99.90;;;;;;5045211;28;20541;-75
2021/09/15 09:53:02;;;;;;;14.48;12.27;;;20.70;99.90;;;;;;5047956;28;20037;-75
2021/09/15 09:55:33;;;;;;;18.15;14.07;;;20.90;99.90;;;;;;5047280;28;20017;-75
2021/09/15 09:58:00;;;;;;;16.88;14.75;;;20.80;99.90;;;;;;5044151;28;20017;-75
2021/09/15 10:00:26;;;;;;;16.77;14.27;;;20.60;99.90;;;;;;5040265;28;20067;-75
2021/09/15 10:02:52;;;;;;;16.10;14.18;;;20.50;99.90;;;;;;5042675;28;20480;-74
2021/09/15 10:05:20;;;;;;;15.75;13.98;;;20.60;99.90;;;;;;5047395;28;20476;-75
2021/09/15 10:07:47;;;;;;;15.90;13.73;;;20.60;99.90;;;;;;5044136;28;20468;-75
2021/09/15 10:10:16;;;;;;;15.05;13.18;;;20.40;99.90;;;;;;5040684;28;20021;-75
2021/09/15 10:12:42;;;;;;;15.48;13.70;;;20.20;99.90;;;;;;5042113;28;20060;-75
2021/09/15 10:15:09;;;;;;;15.93;13.43;;;20.20;99.90;;;;;;5046787;28;20024;-75
2021/09/15 10:17:38;;;;;;;16.38;13.65;;;20.20;99.90;;;;;;5044244;28;20009;-74
2021/09/15 10:20:09;;;;;;;15.48;12.77;;;20.20;99.90;;;;;;5053644;28;20486;-75
2021/09/15 10:22:46;;;;;;;15.88;12.13;;;20.30;99.90;;;;;;5053740;28;20483;-75
2021/09/15 10:25:11;;;;;;;13.90;12.23;;;20.20;99.90;;;;;;5052747;28;20035;-75
2021/09/15 10:27:57;;;;;;;13.88;11.80;;;20.20;99.90;;;;;;5052492;28;20022;-75
2021/09/15 10:30:49;;;;;;;15.80;12.13;;;20.10;99.90;;;;;;5039854;28;20020;-76
2021/09/15 10:33:36;;;;;;;12.95;11.45;;;20.10;99.90;;;;;;5042531;28;20021;-75
2021/09/15 10:36:22;;;;;;;14.02;12.52;;;20.00;99.90;;;;;;5053506;28;20032;-75
2021/09/15 10:38:55;;;;;;;15.88;12.48;;;20.00;99.90;;;;;;5053161;28;20021;-75
2021/09/15 10:41:41;;;;;;;14.80;12.65;;;20.10;99.90;;;;;;5052938;28;20254;-75
2021/09/15 10:44:09;;;;;;;17.60;13.25;;;20.10;99.90;;;;;;5041940;28;20021;-75
2021/09/15 10:46:35;;;;;;;15.65;13.05;;;20.00;99.90;;;;;;5044292;28;20052;-75
2021/09/15 10:49:17;;;;;;;18.00;14.23;;;19.90;99.90;;;;;;5053160;28;20032;-75
2021/09/15 10:51:42;;;;;;;14.52;12.95;;;20.00;99.90;;;;;;5049303;28;20506;-75
2021/09/15 10:54:46;;;;;;;14.32;12.73;;;20.00;99.90;;;;;;5041806;28;20029;-75
2021/09/15 10:57:27;;;;;;;14.05;12.13;;;20.30;99.90;;;;;;5039690;28;20134;-75
2021/09/15 10:59:54;;;;;;;16.10;12.93;;;20.30;99.90;;;;;;5046470;28;20056;-75
2021/09/15 11:02:38;;;;;;;15.15;13.15;;;20.40;99.90;;;;;;5051715;28;20405;-75
2021/09/15 11:05:25;;;;;;;15.95;14.25;;;20.20;99.90;;;;;;5044160;28;20021;-75
2021/09/15 11:07:51;;;;;;;16.08;13.90;;;20.30;99.90;;;;;;5046797;28;20024;-75
2021/09/15 11:10:34;;;;;;;16.55;14.20;;;20.20;99.90;;;;;;5052597;28;20092;-75
2021/09/15 11:13:04;;;;;;;17.52;13.77;;;20.20;99.90;;;;;;5042955;28;20064;-75
2021/09/15 11:15:30;;;;;;;16.98;14.55;;;20.30;99.90;;;;;;5045844;28;20100;-75
2021/09/15 11:17:56;;;;;;;16.20;14.02;;;20.20;99.90;;;;;;5042908;28;20043;-75
2021/09/15 11:20:24;;;;;;;16.73;14.88;;;20.40;99.90;;;;;;5041496;28;20025;-75
2021/09/15 11:22:51;;;;;;;16.13;13.48;;;20.30;99.90;;;;;;5048701;28;20418;-75
2021/09/15 11:25:21;;;;;;;16.25;14.30;;;20.40;99.90;;;;;;5048431;28;20033;-75
2021/09/15 11:28:08;;;;;;;19.30;14.23;;;20.40;99.90;;;;;;5052547;28;20028;-75
2021/09/15 11:30:39;;;;;;;15.95;14.07;;;20.30;99.90;;;;;;5046366;28;20053;-75
2021/09/15 11:33:06;;;;;;;16.25;12.77;;;20.40;99.90;;;;;;5041425;28;20021;-75
2021/09/15 11:35:37;;;;;;;15.45;12.82;;;20.50;99.90;;;;;;5048461;28;20029;-75
2021/09/15 11:38:07;;;;;;;16.30;12.63;;;20.60;99.90;;;;;;5039560;28;20022;-75
2021/09/15 11:40:34;;;;;;;14.40;11.55;;;20.70;99.90;;;;;;5045293;28;20095;-75
2021/09/15 11:43:07;;;;;;;15.77;10.90;;;20.60;99.90;;;;;;5056255;28;20095;-75
2021/09/15 11:45:34;;;;;;;12.27;10.98;;;20.60;99.90;;;;;;5065718;28;20021;-75
2021/09/15 11:48:01;;;;;;;12.85;10.07;;;20.50;99.90;;;;;;5043774;28;20025;-75
2021/09/15 11:50:33;;;;;;;12.40;10.38;;;20.40;99.90;;;;;;5042565;28;20052;-75
2021/09/15 11:53:08;;;;;;;11.15;10.00;;;20.40;99.90;;;;;;5045233;28;20109;-75
2021/09/15 11:55:36;;;;;;;12.48;9.68;;;20.20;99.90;;;;;;5050204;28;20017;-76
2021/09/15 11:58:03;;;;;;;12.05;9.80;;;20.20;99.90;;;;;;5044305;28;20025;-75
2021/09/15 12:00:33;;;;;;;11.32;9.65;;;20.30;99.90;;;;;;5054593;28;20020;-75
2021/09/15 12:03:04;;;;;;;11.82;9.40;;;20.40;99.90;;;;;;5052161;28;20067;-75
2021/09/15 12:05:30;;;;;;;13.25;9.93;;;20.50;99.90;;;;;;5043329;28;20032;-76
2021/09/15 12:07:57;;;;;;;10.98;9.32;;;20.50;99.90;;;;;;5051866;28;20021;-75
2021/09/15 12:10:23;;;;;;;14.65;10.02;;;20.40;99.90;;;;;;5047355;28;20486;-75
2021/09/15 12:12:50;;;;;;;10.70;9.10;;;20.40;99.90;;;;;;5036752;28;20587;-75
2021/09/15 12:15:16;;;;;;;11.02;9.15;;;20.40;99.90;;;;;;5044723;28;20391;-76
2021/09/15 12:17:59;;;;;;;11.38;10.18;;;20.40;99.90;;;;;;5047504;28;20021;-75
2021/09/15 12:20:47;;;;;;;13.65;9.57;;;20.40;99.90;;;;;;5032788;28;20495;-75
2021/09/15 12:23:13;;;;;;;12.32;10.35;;;20.50;99.90;;;;;;5032971;28;20069;-75
2021/09/15 12:25:49;;;;;;;11.88;9.55;;;20.60;99.90;;;;;;5048646;28;20499;-76
2021/09/15 12:28:24;;;;;;;11.85;10.38;;;20.50;99.90;;;;;;5062680;28;20078;-76
2021/09/15 12:30:50;;;;;;;10.25;9.13;;;20.60;99.90;;;;;;5065122;28;20035;-75
2021/09/15 12:33:32;;;;;;;10.73;8.27;;;20.60;99.90;;;;;;5044997;28;20104;-75
2021/09/15 12:36:18;;;;;;;12.05;9.75;;;20.70;99.90;;;;;;5044626;28;20035;-76
2021/09/15 12:38:58;;;;;;;11.30;9.02;;;20.90;99.90;;;;;;5045784;28;20029;-75
2021/09/15 12:41:25;;;;;;;10.02;8.00;;;21.00;99.90;;;;;;5044602;28;20098;-76
2021/09/15 12:44:24;;;;;;;11.60;9.25;;;21.10;99.90;;;;;;5045163;28;20022;-75
2021/09/15 12:46:54;;;;;;;8.43;6.57;;;21.10;99.90;;;;;;5048845;28;20025;-75
2021/09/15 12:49:28;;;;;;;9.75;6.70;;;21.10;99.90;;;;;;5043600;28;20025;-75